Terminal Aerodrome Forecast
Issued by NWS Wilmington, OH

Current Version | Previous Version | Text Only | Print | Product List | Glossary Off
Versions: 1 2 3 4 5 6 7 8 9 10 11 12 13 14 15 16 17 18 19 20 21 22 23

000
FTUS41 KILN 010400 AAA
TAFILN
TAF AMD
KILN 010423Z 0104/0124 21005KT 2SM BR OVC002
     FM010600 20005KT 1 1/2SM BR OVC004
      TEMPO 0108/0112 1/2SM FG VV002
     FM011400 21008KT 4SM BR BKN012
     FM011600 21011KT P6SM BKN025
     FM011800 21014G22KT P6SM SCT030=

USA.gov is the U.S. government's official web portal to all federal, state and local government web resources and services.